Latest Weather Observations for Butlers Gorge

IDT60801

Issued at 6:31 pm EST Monday 1 June 2020 (issued every 10 minutes, with the page automatically refreshed every 10 minutes)

About weather observations | Map of weather stations | Latest weather observations for TAS | Other Formats
Station Details ID: 096003 Name: BUTLERS GORGE Lat: -42.28 Lon: 146.28 Height: 667.0 m
Data from the previous 72 hours. | See also: Recent months at Butlers Gorge
Date/Time
EST
Temp
°C
App
Temp
°C
Dew
Point
°C
Rel
Hum
%
Delta-T
°C
Wind Press
QNH
hPa
Press
MSL
hPa
Rain since
9am
mm
Dir  Spd
km/h
Gust
km/h
Spd
kts
Gust
kts
01/06:30pm 4.7 1.3 1.9 82 1.2 WSW 9 13 5 7 - - 0.2
01/06:00pm 4.3 1.5 2.0 85 1.0 NNW 6 9 3 5 - - 0.2
01/05:30pm 5.1 1.8 2.3 82 1.2 NNW 9 13 5 7 - - 0.2
01/05:00pm 5.5 1.8 2.3 80 1.4 WSW 11 17 6 9 - - 0.2
01/04:30pm 6.1 2.5 3.1 81 1.3 WSW 11 17 6 9 - - 0.2
01/04:00pm 8.1 5.4 5.6 84 1.2 W 9 19 5 10 - - 0.2
01/03:30pm 8.5 6.2 5.6 82 1.4 WSW 7 11 4 6 - - 0.2
01/03:00pm 8.9 6.2 5.5 79 1.6 W 9 17 5 9 - - 0.0
01/02:30pm 9.1 7.0 5.7 79 1.6 W 6 11 3 6 - - 0.0
01/02:00pm 9.3 5.7 4.9 74 2.0 WSW 13 20 7 11 - - 0.0
01/01:30pm 9.6 6.7 4.6 71 2.3 WSW 9 15 5 8 - - 0.0
01/01:00pm 10.0 8.3 4.2 67 2.7 WNW 2 7 1 4 - - 0.0
01/12:30pm 9.7 7.1 4.1 68 2.6 NW 7 15 4 8 - - 0.0
01/12:00pm 9.9 7.3 4.3 68 2.6 N 7 11 4 6 - - 0.0
01/11:30am 9.8 6.7 3.5 65 2.9 N 9 13 5 7 - - 0.0
01/11:00am 9.6 7.1 4.8 72 2.2 WNW 7 13 4 7 - - 0.0
01/10:30am 8.4 6.4 4.2 75 1.9 NNW 4 13 2 7 - - 0.0
01/10:00am 6.2 4.9 3.9 85 1.0 CALM 0 0 0 0 - - 0.0
01/09:30am 3.4 1.0 1.9 90 0.6 NNE 4 7 2 4 - - 0.0
01/09:00am 1.1 -0.8 0.4 95 0.3 CALM 0 0 0 0 - - 0.2
01/08:30am -0.4 -2.5 -1.1 95 0.2 CALM 0 0 0 0 - - 0.2
01/08:00am -1.2 -4.2 -1.9 95 0.2 S 4 7 2 4 - - 0.2
01/07:30am -0.9 -3.5 -1.6 95 0.2 WNW 2 7 1 4 - - 0.2
01/07:00am -0.4 -2.5 -1.1 95 0.2 CALM 0 0 0 0 - - 0.2
01/06:30am -0.4 -2.6 -1.2 94 0.3 CALM 0 0 0 0 - - 0.2
01/06:00am 0.4 -1.6 -0.3 95 0.3 CALM 0 0 0 0 - - 0.2
01/05:30am 0.5 -1.5 -0.2 95 0.3 CALM 0 0 0 0 - - 0.2
01/05:00am 1.0 -1.7 0.3 95 0.3 WSW 4 9 2 5 - - 0.2
01/04:30am 1.1 -0.9 0.2 94 0.3 CALM 0 6 0 3 - - 0.2
01/04:00am 1.8 -1.2 0.9 94 0.4 SW 6 7 3 4 - - 0.2
01/03:30am 2.0 -1.0 1.1 94 0.4 SW 6 9 3 5 - - 0.2
01/03:00am 2.8 0.4 1.9 94 0.4 SSW 4 7 2 4 - - 0.2
01/02:30am 2.2 -0.7 1.2 93 0.4 WNW 6 11 3 6 - - 0.2
01/02:00am 3.2 1.2 2.2 93 0.4 SW 2 7 1 4 - - 0.2
01/01:30am 3.0 0.2 1.8 92 0.5 W 6 9 3 5 - - 0.2
01/01:00am 3.2 0.2 2.0 92 0.5 SW 7 11 4 6 - - 0.2
01/12:30am 3.6 1.2 2.3 91 0.5 WSW 4 7 2 4 - - 0.2
01/12:00am 3.9 2.3 2.3 89 0.7 CALM 0 6 0 3 - - 0.2
 
Date/Time
EST
Temp
°C
App
Temp
°C
Dew
Point
°C
Rel
Hum
%
Delta-T
°C
Wind Press
QNH
hPa
Press
MSL
hPa
Rain since
9am
mm
Dir  Spd
km/h
Gust
km/h
Spd
kts
Gust
kts
31/11:30pm 4.5 1.7 2.2 85 1.0 NNW 6 9 3 5 - - 0.2
31/11:00pm 4.0 1.1 1.7 85 0.9 N 6 11 3 6 - - 0.2
31/10:30pm 5.3 2.8 1.8 78 1.5 NNW 4 7 2 4 - - 0.2
31/10:00pm 5.4 2.4 1.9 78 1.5 NNW 7 13 4 7 - - 0.2
31/09:30pm 5.3 2.3 2.0 79 1.4 NNW 7 13 4 7 - - 0.2
31/09:00pm 5.0 2.2 1.8 80 1.3 N 6 17 3 9 - - 0.2
31/08:30pm 4.0 1.6 1.9 86 0.9 N 4 13 2 7 - - 0.2
31/08:00pm 2.8 -0.1 1.3 90 0.6 WSW 6 11 3 6 - - 0.2
31/07:30pm 2.8 -0.1 1.3 90 0.6 WSW 6 11 3 6 - - 0.0
31/07:00pm 3.3 0.8 1.5 88 0.7 NE 4 11 2 6 - - 0.0
31/06:30pm 3.0 0.0 1.1 87 0.8 NNE 6 11 3 6 - - 0.0
31/06:00pm 4.2 1.4 1.9 85 1.0 WSW 6 11 3 6 - - 0.0
31/05:30pm 5.2 1.8 1.9 79 1.4 N 9 15 5 8 - - 0.0
31/05:00pm 5.7 2.0 2.4 79 1.4 NNE 11 19 6 10 - - 0.0
31/04:30pm 6.3 1.8 2.0 74 1.8 WNW 15 28 8 15 - - 0.0
31/04:00pm 6.5 2.6 3.3 80 1.4 N 13 20 7 11 - - 0.0
31/03:30pm 7.1 2.9 1.8 69 2.3 NW 13 22 7 12 - - 0.0
31/03:00pm 7.5 2.9 1.4 65 2.6 NW 15 28 8 15 - - 0.0
31/02:30pm 7.7 3.7 2.6 70 2.2 NW 13 24 7 13 - - 0.0
31/02:00pm 7.6 3.8 1.7 66 2.5 WNW 11 24 6 13 - - 0.0
31/01:30pm 7.9 4.7 2.8 70 2.2 W 9 20 5 11 - - 0.0
31/01:00pm 8.1 4.5 3.2 71 2.2 WNW 11 24 6 13 - - 0.0
31/12:30pm 7.3 4.3 4.1 80 1.4 WNW 9 19 5 10 - - 0.0
31/12:00pm 7.2 3.6 3.1 75 1.8 WNW 11 20 6 11 - - 0.0
31/11:30am 7.1 3.6 3.7 79 1.5 WNW 11 20 6 11 - - 0.0
31/11:00am 7.3 3.8 3.4 76 1.7 NW 11 17 6 9 - - 0.0
31/10:30am 8.1 4.4 2.6 68 2.4 NNW 11 17 6 9 - - 0.0
31/10:00am 7.7 4.1 3.0 72 2.1 NW 11 22 6 12 - - 0.0
31/09:30am 7.5 3.0 2.4 70 2.2 WNW 15 30 8 16 - - 0.0
31/09:00am 6.7 3.4 2.4 74 1.8 WNW 9 20 5 11 - - 7.8
31/08:30am 6.3 3.1 3.1 80 1.4 WNW 9 17 5 9 - - 7.8
31/08:00am 5.9 2.3 3.1 82 1.2 WNW 11 20 6 11 - - 7.8
31/07:30am 5.9 2.1 3.9 87 0.9 W 13 24 7 13 - - 7.8
31/07:00am 5.7 3.0 3.9 88 0.8 WSW 7 17 4 9 - - 7.4
31/06:30am 6.1 3.8 4.6 90 0.7 W 6 9 3 5 - - 7.0
31/06:00am 6.1 3.2 4.6 90 0.7 WNW 9 19 5 10 - - 6.0
31/05:30am 6.1 3.1 4.3 88 0.8 WNW 9 17 5 9 - - 5.8
31/05:00am 6.5 3.1 4.2 85 1.0 NW 11 20 6 11 - - 5.0
31/04:30am 6.9 2.7 3.7 80 1.4 NW 15 28 8 15 - - 5.0
31/04:00am 7.5 2.4 4.1 79 1.5 NW 20 39 11 21 - - 4.4
31/03:30am 7.5 4.8 5.5 87 0.9 W 9 17 5 9 - - 3.0
31/03:00am 7.5 3.9 5.1 85 1.1 NNW 13 22 7 12 - - 2.2
31/02:30am 7.5 4.7 5.3 86 1.0 NNW 9 20 5 11 - - 1.8
31/02:00am 7.8 5.0 5.3 84 1.2 NNW 9 20 5 11 - - 1.4
31/01:30am 8.1 4.5 5.2 82 1.3 NNW 13 22 7 12 - - 0.6
31/01:00am 9.4 5.3 4.2 70 2.4 NNW 15 30 8 16 - - 0.2
31/12:30am 10.3 5.6 3.3 62 3.2 NNW 17 32 9 17 - - 0.0
31/12:00am 10.7 5.3 2.5 57 3.7 NNW 20 39 11 21 - - 0.0
 
Date/Time
EST
Temp
°C
App
Temp
°C
Dew
Point
°C
Rel
Hum
%
Delta-T
°C
Wind Press
QNH
hPa
Press
MSL
hPa
Rain since
9am
mm
Dir  Spd
km/h
Gust
km/h
Spd
kts
Gust
kts
30/11:30pm 10.5 5.3 2.4 57 3.6 NNW 19 48 10 26 - - 0.0
30/11:00pm 9.9 4.6 2.0 58 3.5 N 19 35 10 19 - - 0.0
30/10:30pm 9.6 4.0 1.5 57 3.5 N 20 41 11 22 - - 0.0
30/10:00pm 9.4 3.1 1.6 58 3.4 N 24 48 13 26 - - 0.0
30/09:30pm 9.0 3.5 1.7 60 3.2 N 20 41 11 22 - - 0.0
30/09:00pm 8.6 3.5 0.8 58 3.3 N 17 35 9 19 - - 0.0
30/08:30pm 8.7 2.3 0.7 57 3.4 N 24 50 13 27 - - 0.0
30/08:00pm 8.5 2.4 0.5 57 3.3 N 22 41 12 22 - - 0.0
30/07:30pm 8.8 3.2 1.2 59 3.2 N 20 43 11 23 - - 0.0
30/07:00pm 8.9 3.4 2.0 62 3.0 N 20 39 11 21 - - 0.0
30/06:30pm 9.0 3.8 2.3 63 2.9 N 19 41 10 22 - - 0.0
30/06:00pm 8.9 3.5 2.3 63 2.9 N 20 30 11 16 - - 0.0
30/05:30pm 8.9 4.0 2.3 63 2.9 N 17 37 9 20 - - 0.0
30/05:00pm 8.9 4.4 2.3 63 2.9 N 15 24 8 13 - - 0.0
30/04:30pm 9.3 4.5 2.4 62 3.0 N 17 37 9 20 - - 0.0
30/04:00pm 9.8 5.3 2.4 60 3.3 N 15 35 8 19 - - 0.0
30/03:30pm 10.4 5.5 2.3 57 3.6 N 17 43 9 23 - - 0.0
30/03:00pm 10.8 5.8 1.6 53 4.0 N 17 43 9 23 - - 0.0
30/02:30pm 11.0 5.7 1.8 53 4.1 NNW 19 41 10 22 - - 0.0
30/02:00pm 11.2 6.0 2.5 55 3.9 NNW 19 54 10 29 - - 0.0
30/01:30pm 11.6 6.8 2.4 53 4.1 NNW 17 32 9 17 - - 0.0
30/01:00pm 11.7 7.3 2.5 53 4.1 NNW 15 30 8 16 - - 0.0
30/12:30pm 11.4 6.6 2.7 55 3.9 N 17 30 9 16 - - 0.0
30/12:00pm 11.5 6.6 2.0 52 4.2 N 17 32 9 17 - - 0.0
30/11:30am 11.1 6.7 2.9 57 3.7 NNW 15 28 8 15 - - 0.0
30/11:00am 11.1 8.4 3.6 60 3.4 NW 7 17 4 9 - - 0.0
30/10:30am 10.7 7.5 2.8 58 3.6 NNW 9 17 5 9 - - 0.0
30/10:00am 10.2 7.4 2.1 57 3.6 WSW 6 7 3 4 - - 0.0
30/09:30am 9.5 6.5 2.1 60 3.2 SW 7 13 4 7 - - 0.0
30/09:00am 9.3 5.9 1.9 60 3.2 WNW 9 15 5 8 - - 0.4
30/08:30am 8.9 5.9 1.8 61 3.1 WNW 7 15 4 8 - - 0.4
30/08:00am 9.1 5.3 1.8 60 3.2 NW 11 24 6 13 - - 0.4
30/07:30am 8.9 5.1 1.8 61 3.1 WNW 11 24 6 13 - - 0.4
30/07:00am 9.4 4.9 2.0 60 3.2 WNW 15 33 8 18 - - 0.4
30/06:30am 9.4 4.9 2.3 61 3.1 NW 15 41 8 22 - - 0.4
30/06:00am 9.7 4.5 2.3 60 3.3 NW 19 33 10 18 - - 0.4
30/05:30am 9.4 5.3 2.5 62 3.0 W 13 28 7 15 - - 0.4
30/05:00am 9.3 4.9 2.9 64 2.8 W 15 32 8 17 - - 0.4
30/04:30am 9.3 5.2 2.4 62 3.0 WNW 13 30 7 16 - - 0.4
30/04:00am 9.1 4.6 2.2 62 3.0 W 15 30 8 16 - - 0.4
30/03:30am 8.9 4.8 2.3 63 2.9 WNW 13 35 7 19 - - 0.4
30/03:00am 8.6 4.5 2.0 63 2.9 W 13 32 7 17 - - 0.4
30/02:30am 8.0 4.6 1.8 65 2.7 WSW 9 22 5 12 - - 0.4
30/02:00am 8.0 5.0 1.8 65 2.7 W 7 13 4 7 - - 0.4
30/01:30am 8.2 4.4 1.8 64 2.7 WNW 11 24 6 13 - - 0.4
30/01:00am 8.3 4.1 1.7 63 2.8 NW 13 22 7 12 - - 0.4
30/12:30am 8.6 4.4 1.7 62 3.0 NW 13 24 7 13 - - 0.4
30/12:00am 8.9 4.5 2.5 64 2.8 NW 15 28 8 15 - - 0.4
 
Date/Time
EST
Temp
°C
App
Temp
°C
Dew
Point
°C
Rel
Hum
%
Delta-T
°C
Wind Press
QNH
hPa
Press
MSL
hPa
Rain since
9am
mm
Dir  Spd
km/h
Gust
km/h
Spd
kts
Gust
kts
29/11:30pm 8.9 5.3 3.1 67 2.6 WNW 11 24 6 13 - - 0.4
29/11:00pm 9.0 5.4 3.0 66 2.7 WNW 11 24 6 13 - - 0.4
29/10:30pm 8.9 5.4 3.5 69 2.4 NW 11 22 6 12 - - 0.4
29/10:00pm 8.7 5.7 4.3 74 2.0 WNW 9 17 5 9 - - 0.4
29/09:30pm 8.9 5.5 4.1 72 2.2 NNW 11 20 6 11 - - 0.4
29/09:00pm 9.0 6.0 4.0 71 2.3 NNW 9 20 5 11 - - 0.4
29/08:30pm 8.9 5.8 3.7 70 2.3 NNW 9 13 5 7 - - 0.4
29/08:00pm 8.9 6.2 3.9 71 2.3 NW 7 13 4 7 - - 0.4
29/07:30pm 7.7 5.4 4.7 81 1.4 NNW 6 11 3 6 - - 0.4
29/07:00pm 7.4 5.1 4.7 83 1.2 W 6 11 3 6 - - 0.4

Other formats

Comma delimited format used in spreadsheet applications
http://www.bom.gov.au/fwo/IDT60801/IDT60801.94959.axf

JavaScript Object Notation format (JSON) in row-major order
http://www.bom.gov.au/fwo/IDT60801/IDT60801.94959.json

Data quality

Most of these data are generated automatically and are frequently updated. Quality checks on data are not normally performed. It is possible for incorrect values to appear. Refer to information at About Latest Weather Observations and please check the disclaimer before using these data.